Weather History for Mosby, MO

Change the Weather History Date:

Monday, December 3, 2012

  Actual Average (KMKC) Record (KMKC)
Temperature  
Mean Temperature 60 °F -  
Max Temperature 71 °F 46 °F 73 °F (2012)
Min Temperature 48 °F 30 °F 17 °F (2006)
Degree Days  
Heating Degree Days 4    
Growing Degree Days 10 (Base 50)    
Moisture  
Dew Point 52 °F    
Average Humidity 71    
Maximum Humidity 94    
Minimum Humidity 52    
Precipitation  
Precipitation 0.00 in - - ()
Sea Level Pressure  
Sea Level Pressure 29.84 in    
Wind  
Wind Speed 9 mph ()    
Max Wind Speed 24 mph    
Max Gust Speed 34 mph    
Visibility 9.8 miles    
Events      
Averages and records for this station are not official NWS values.
T = Trace of Precipitation, MM = Missing Value Source: Averaged Metar Reports

Daily Weather History Graph

Daily Weather History Graph

Search for Another Location

Airport:

Trip Planner

Search our weather history database for the weather conditions in past years. The results will help you decide how hot, cold, wet, or windy it might be!

Date:

Astronomy

Dec. 03, 2012 Rise Set
Actual Time 7:20 AM CST 4:53 PM CST
Civil Twilight 6:50 AM CST 5:23 PM CST
Nautical Twilight 6:17 AM CST 5:57 PM CST
Astronomical Twilight 5:44 AM CST 6:29 PM CST
Moon 9:40 PM CST (12/3) 10:44 AM CST (12/3)
Length of Visible Light 10h 33m
Length of Day
9h 33m
Waning Gibbous, 78% of the Moon is Illuminated
Dec 3
Waning Gibbous
Dec 6
Last Quarter
Dec 13
New
Dec 19
First Quarter
Dec 28
Full

Hourly Weather History & Observations

Time (CST) Temp. Dew Point Humidity Pressure Visibility Wind Dir Wind Speed Gust Speed Precip Events Conditions
12:15 AM 55.4 °F 53.6 °F 94% 29.87 in 7.0 mi Calm Calm - N/A   Scattered Clouds
12:35 AM 55.4 °F 53.6 °F 94% 29.86 in 7.0 mi SE 3.5 mph - N/A   Scattered Clouds
12:55 AM 55.4 °F 53.6 °F 94% 29.85 in 7.0 mi SE 8.1 mph - N/A   Mostly Cloudy
1:15 AM 55.4 °F 53.6 °F 94% 29.84 in 7.0 mi SE 3.5 mph - N/A   Scattered Clouds
1:35 AM 55.4 °F 53.6 °F 94% 29.84 in 7.0 mi SE 4.6 mph - N/A   Clear
2:15 AM 59.0 °F 55.4 °F 88% 29.83 in 10.0 mi SSE 9.2 mph - N/A   Clear
2:35 AM 59.0 °F 55.4 °F 88% 29.82 in 10.0 mi SSE 9.2 mph - N/A   Clear
2:55 AM 60.8 °F 57.2 °F 88% 29.82 in 10.0 mi SSE 8.1 mph - N/A   Clear
3:15 AM 62.6 °F 57.2 °F 82% 29.81 in 10.0 mi SSE 10.4 mph - N/A   Clear
3:35 AM 62.6 °F 57.2 °F 82% 29.80 in 10.0 mi South 10.4 mph - N/A   Clear
3:55 AM 62.6 °F 59.0 °F 88% 29.79 in 10.0 mi South 12.7 mph 21.9 mph N/A   Clear
4:15 AM 62.6 °F 59.0 °F 88% 29.78 in 10.0 mi South 13.8 mph 20.7 mph N/A   Clear
4:35 AM 62.6 °F 59.0 °F 88% 29.77 in 10.0 mi South 12.7 mph - N/A   Clear
4:55 AM 62.6 °F 59.0 °F 88% 29.76 in 10.0 mi South 12.7 mph 19.6 mph N/A   Clear
5:15 AM 62.6 °F 59.0 °F 88% 29.76 in 10.0 mi South 12.7 mph 18.4 mph N/A   Clear
5:35 AM 62.6 °F 59.0 °F 88% 29.74 in 10.0 mi South 12.7 mph 20.7 mph N/A   Clear
5:55 AM 62.6 °F 59.0 °F 88% 29.74 in 10.0 mi South 12.7 mph 20.7 mph N/A   Clear
6:15 AM 62.6 °F 59.0 °F 88% 29.74 in 10.0 mi South 12.7 mph 19.6 mph N/A   Clear
6:35 AM 62.6 °F 57.2 °F 82% 29.74 in 10.0 mi South 13.8 mph 20.7 mph N/A   Clear
6:55 AM 62.6 °F 59.0 °F 88% 29.74 in 10.0 mi South 13.8 mph 19.6 mph N/A   Clear
7:15 AM 62.6 °F 59.0 °F 88% 29.74 in 10.0 mi South 11.5 mph 18.4 mph N/A   Clear
7:35 AM 62.6 °F 59.0 °F 88% 29.74 in 10.0 mi South 12.7 mph 19.6 mph N/A   Clear
7:55 AM 62.6 °F 59.0 °F 88% 29.74 in 10.0 mi SSE 9.2 mph - N/A   Clear
8:15 AM 62.6 °F 59.0 °F 88% 29.74 in 10.0 mi SSE 9.2 mph 17.3 mph N/A   Scattered Clouds
8:35 AM 62.6 °F 59.0 °F 88% 29.75 in 10.0 mi SSE 8.1 mph - N/A   Overcast
8:55 AM 64.4 °F 59.0 °F 83% 29.76 in 10.0 mi South 9.2 mph - N/A   Overcast
9:15 AM 66.2 °F 59.0 °F 78% 29.74 in 10.0 mi South 20.7 mph 25.3 mph N/A   Mostly Cloudy
9:35 AM 68.0 °F 59.0 °F 73% 29.74 in 10.0 mi South 16.1 mph 26.5 mph N/A   Mostly Cloudy
9:55 AM 68.0 °F 59.0 °F 73% 29.74 in 10.0 mi South 16.1 mph 27.6 mph N/A   Overcast
10:15 AM 68.0 °F 59.0 °F 73% 29.74 in 10.0 mi SSW 21.9 mph 29.9 mph N/A   Overcast
10:35 AM 69.8 °F 59.0 °F 68% 29.75 in 10.0 mi SSW 20.7 mph 27.6 mph N/A   Overcast
10:55 AM 69.8 °F 57.2 °F 64% 29.75 in 10.0 mi SSW 21.9 mph 32.2 mph N/A   Overcast
11:15 AM 69.8 °F 57.2 °F 64% 29.75 in 10.0 mi SSW 21.9 mph 28.8 mph N/A   Overcast
11:35 AM 69.8 °F 55.4 °F 60% 29.75 in 10.0 mi SSW 24.2 mph 34.5 mph N/A   Overcast
11:55 AM 69.8 °F 55.4 °F 60% 29.74 in 10.0 mi SSW 21.9 mph 31.1 mph N/A   Mostly Cloudy
12:15 PM 71.6 °F 57.2 °F 60% 29.75 in 10.0 mi SSW 19.6 mph 29.9 mph N/A   Mostly Cloudy
12:35 PM 69.8 °F 55.4 °F 60% 29.74 in 10.0 mi SSW 17.3 mph 33.4 mph N/A   Overcast
1:15 PM 71.6 °F 55.4 °F 57% 29.75 in 10.0 mi SW 19.6 mph 28.8 mph N/A   Overcast
1:35 PM 71.6 °F 55.4 °F 57% 29.76 in 10.0 mi SSW 15.0 mph 25.3 mph N/A   Overcast
2:35 PM 71.6 °F 55.4 °F 57% 29.77 in 10.0 mi SSW 13.8 mph 18.4 mph N/A   Mostly Cloudy
3:15 PM 69.8 °F 57.2 °F 64% 29.78 in 10.0 mi South 10.4 mph - N/A   Scattered Clouds
3:35 PM 69.8 °F 57.2 °F 64% 29.79 in 10.0 mi South 9.2 mph - N/A   Mostly Cloudy
3:55 PM 69.8 °F 57.2 °F 64% 29.80 in 10.0 mi SSW 6.9 mph - N/A   Overcast
4:15 PM 69.8 °F 57.2 °F 64% 29.81 in 10.0 mi SSW 8.1 mph - N/A   Overcast
4:35 PM 62.6 °F 44.6 °F 52% 29.84 in 10.0 mi NW 16.1 mph 20.7 mph N/A   Overcast
4:55 PM 60.8 °F 44.6 °F 55% 29.85 in 10.0 mi NW 10.4 mph - N/A   Mostly Cloudy
5:15 PM 60.8 °F 44.6 °F 55% 29.87 in 10.0 mi NW 11.5 mph - N/A   Mostly Cloudy
5:35 PM 59.0 °F 42.8 °F 55% 29.89 in 10.0 mi NNW 17.3 mph 23.0 mph N/A   Mostly Cloudy
5:55 PM 59.0 °F 42.8 °F 55% 29.90 in 10.0 mi NNW 11.5 mph - N/A   Overcast
6:15 PM 59.0 °F 42.8 °F 55% 29.91 in 10.0 mi NNW 8.1 mph - N/A   Unknown
6:35 PM 59.0 °F 42.8 °F 55% 29.92 in 10.0 mi NW 9.2 mph - N/A   Unknown
6:55 PM 59.0 °F 42.8 °F 55% 29.93 in 10.0 mi NNW 8.1 mph 17.3 mph N/A   Unknown
7:15 PM 59.0 °F 42.8 °F 55% 29.95 in 10.0 mi NNW 8.1 mph - N/A   Unknown
7:35 PM 59.0 °F 42.8 °F 55% 29.95 in 10.0 mi North 10.4 mph - N/A   Overcast
7:55 PM 59.0 °F 42.8 °F 55% 29.96 in 10.0 mi NNW 9.2 mph - N/A   Overcast
8:15 PM 57.2 °F 42.8 °F 59% 29.97 in 10.0 mi NNW 10.4 mph - N/A   Overcast
8:35 PM 57.2 °F 41.0 °F 55% 29.98 in 10.0 mi NNW 9.2 mph - N/A   Overcast
8:55 PM 55.4 °F 41.0 °F 58% 29.99 in 10.0 mi NNW 10.4 mph - N/A   Mostly Cloudy
9:15 PM 55.4 °F 41.0 °F 58% 29.99 in 10.0 mi NNW 8.1 mph - N/A   Scattered Clouds
9:35 PM 53.6 °F 39.2 °F 58% 29.99 in 10.0 mi NNW 9.2 mph - N/A   Clear
9:55 PM 53.6 °F 39.2 °F 58% 30.01 in 10.0 mi NNW 6.9 mph - N/A   Clear
10:15 PM 53.6 °F 37.4 °F 54% 30.01 in 10.0 mi North 9.2 mph - N/A   Clear
10:35 PM 51.8 °F 37.4 °F 58% 30.02 in 10.0 mi NNW 8.1 mph - N/A   Clear
10:55 PM 51.8 °F 35.6 °F 54% 30.02 in 10.0 mi NNW 4.6 mph - N/A   Clear
11:15 PM 50.0 °F 35.6 °F 58% 30.03 in 10.0 mi NNW 3.5 mph - N/A   Clear
11:35 PM 50.0 °F 35.6 °F 58% 30.03 in 10.0 mi NNW 5.8 mph - N/A   Clear
11:55 PM 48.2 °F 35.6 °F 62% 30.04 in 10.0 mi Calm Calm - N/A   Clear